sensor_id;sensor_type;location;lat;lon;timestamp;temperature;humidity
26621;DHT22;14253;44.840;10.444;2022-12-17T00:01:54;5.70;99.90
26621;DHT22;14253;44.840;10.444;2022-12-17T00:04:39;5.70;99.90
26621;DHT22;14253;44.840;10.444;2022-12-17T00:07:23;5.70;99.90
26621;DHT22;14253;44.840;10.444;2022-12-17T00:10:09;5.70;99.90
26621;DHT22;14253;44.840;10.444;2022-12-17T00:12:53;5.70;99.90
26621;DHT22;14253;44.840;10.444;2022-12-17T00:15:38;5.70;99.90
26621;DHT22;14253;44.840;10.444;2022-12-17T00:18:22;5.70;99.90
26621;DHT22;14253;44.840;10.444;2022-12-17T00:21:08;5.70;99.90
26621;DHT22;14253;44.840;10.444;2022-12-17T00:23:52;5.70;99.90
26621;DHT22;14253;44.840;10.444;2022-12-17T00:26:37;5.70;99.90
26621;DHT22;14253;44.840;10.444;2022-12-17T00:29:22;5.70;99.90
26621;DHT22;14253;44.840;10.444;2022-12-17T00:32:07;5.70;99.90
26621;DHT22;14253;44.840;10.444;2022-12-17T00:34:52;5.70;99.90
26621;DHT22;14253;44.840;10.444;2022-12-17T00:37:37;5.80;99.90
26621;DHT22;14253;44.840;10.444;2022-12-17T00:40:22;5.70;99.90
26621;DHT22;14253;44.840;10.444;2022-12-17T00:43:11;5.80;99.90
26621;DHT22;14253;44.840;10.444;2022-12-17T00:45:56;5.70;99.90
26621;DHT22;14253;44.840;10.444;2022-12-17T00:48:40;5.70;99.90
26621;DHT22;14253;44.840;10.444;2022-12-17T00:51:25;5.70;99.90
26621;DHT22;14253;44.840;10.444;2022-12-17T00:54:10;5.80;99.90
26621;DHT22;14253;44.840;10.444;2022-12-17T00:56:55;5.80;99.90
26621;DHT22;14253;44.840;10.444;2022-12-17T00:59:39;5.80;99.90
26621;DHT22;14253;44.840;10.444;2022-12-17T01:02:25;5.80;99.90
26621;DHT22;14253;44.840;10.444;2022-12-17T01:05:10;5.70;99.90
26621;DHT22;14253;44.840;10.444;2022-12-17T01:07:55;5.70;99.90
26621;DHT22;14253;44.840;10.444;2022-12-17T01:10:40;5.80;99.90
26621;DHT22;14253;44.840;10.444;2022-12-17T01:13:25;5.80;99.90
26621;DHT22;14253;44.840;10.444;2022-12-17T01:16:12;5.80;99.90
26621;DHT22;14253;44.840;10.444;2022-12-17T01:18:57;5.80;99.90
26621;DHT22;14253;44.840;10.444;2022-12-17T01:21:43;5.80;1.00
26621;DHT22;14253;44.840;10.444;2022-12-17T01:24:29;5.80;99.90
26621;DHT22;14253;44.840;10.444;2022-12-17T01:27:13;5.80;99.90
26621;DHT22;14253;44.840;10.444;2022-12-17T01:29:58;5.80;99.90
26621;DHT22;14253;44.840;10.444;2022-12-17T01:32:43;5.90;99.90
26621;DHT22;14253;44.840;10.444;2022-12-17T01:35:41;5.80;99.90
26621;DHT22;14253;44.840;10.444;2022-12-17T01:38:25;5.90;99.90
26621;DHT22;14253;44.840;10.444;2022-12-17T01:41:10;5.90;99.90
26621;DHT22;14253;44.840;10.444;2022-12-17T01:43:54;5.80;99.90
26621;DHT22;14253;44.840;10.444;2022-12-17T01:46:42;5.80;99.90
26621;DHT22;14253;44.840;10.444;2022-12-17T01:49:28;5.80;99.90
26621;DHT22;14253;44.840;10.444;2022-12-17T01:52:15;5.80;99.90
26621;DHT22;14253;44.840;10.444;2022-12-17T01:55:03;5.80;99.90
26621;DHT22;14253;44.840;10.444;2022-12-17T01:57:49;5.70;99.90
26621;DHT22;14253;44.840;10.444;2022-12-17T02:00:33;5.70;99.90
26621;DHT22;14253;44.840;10.444;2022-12-17T02:03:18;5.60;99.90
26621;DHT22;14253;44.840;10.444;2022-12-17T02:06:10;5.60;99.90
26621;DHT22;14253;44.840;10.444;2022-12-17T02:13:13;5.30;99.90
26621;DHT22;14253;44.840;10.444;2022-12-17T02:18:39;5.30;99.90
26621;DHT22;14253;44.840;10.444;2022-12-17T02:21:27;5.20;99.90
26621;DHT22;14253;44.840;10.444;2022-12-17T02:27:36;5.10;99.90
26621;DHT22;14253;44.840;10.444;2022-12-17T02:30:21;5.10;99.90
26621;DHT22;14253;44.840;10.444;2022-12-17T02:33:06;5.00;99.90
26621;DHT22;14253;44.840;10.444;2022-12-17T02:35:57;5.00;99.90
26621;DHT22;14253;44.840;10.444;2022-12-17T02:38:43;5.00;99.90
26621;DHT22;14253;44.840;10.444;2022-12-17T02:41:48;5.00;99.90
26621;DHT22;14253;44.840;10.444;2022-12-17T02:44:34;5.00;1.00
26621;DHT22;14253;44.840;10.444;2022-12-17T02:47:20;5.00;1.00
26621;DHT22;14253;44.840;10.444;2022-12-17T02:50:07;5.00;1.00
26621;DHT22;14253;44.840;10.444;2022-12-17T02:52:53;5.00;1.00
26621;DHT22;14253;44.840;10.444;2022-12-17T02:55:38;5.10;1.00
26621;DHT22;14253;44.840;10.444;2022-12-17T02:58:22;5.10;1.00
26621;DHT22;14253;44.840;10.444;2022-12-17T03:01:07;5.10;1.00
26621;DHT22;14253;44.840;10.444;2022-12-17T03:03:52;5.10;1.00
26621;DHT22;14253;44.840;10.444;2022-12-17T03:06:36;5.20;1.00
26621;DHT22;14253;44.840;10.444;2022-12-17T03:09:21;5.20;1.00
26621;DHT22;14253;44.840;10.444;2022-12-17T03:12:05;5.20;1.00
26621;DHT22;14253;44.840;10.444;2022-12-17T03:14:49;5.30;1.00
26621;DHT22;14253;44.840;10.444;2022-12-17T03:17:33;5.30;1.00
26621;DHT22;14253;44.840;10.444;2022-12-17T03:20:18;5.40;1.00
26621;DHT22;14253;44.840;10.444;2022-12-17T03:23:07;5.40;1.00
26621;DHT22;14253;44.840;10.444;2022-12-17T03:25:52;5.40;1.00
26621;DHT22;14253;44.840;10.444;2022-12-17T03:28:37;5.50;1.00
26621;DHT22;14253;44.840;10.444;2022-12-17T03:31:21;5.50;1.00
26621;DHT22;14253;44.840;10.444;2022-12-17T03:34:06;5.50;1.00
26621;DHT22;14253;44.840;10.444;2022-12-17T03:36:59;5.50;1.00
26621;DHT22;14253;44.840;10.444;2022-12-17T03:39:51;5.50;1.00
26621;DHT22;14253;44.840;10.444;2022-12-17T03:42:36;5.60;1.00
26621;DHT22;14253;44.840;10.444;2022-12-17T03:45:20;5.50;1.00
26621;DHT22;14253;44.840;10.444;2022-12-17T03:48:07;5.50;1.00
26621;DHT22;14253;44.840;10.444;2022-12-17T03:50:52;5.40;1.00
26621;DHT22;14253;44.840;10.444;2022-12-17T03:53:37;5.40;1.00
26621;DHT22;14253;44.840;10.444;2022-12-17T03:56:22;5.30;1.00
26621;DHT22;14253;44.840;10.444;2022-12-17T03:59:06;5.20;99.90
26621;DHT22;14253;44.840;10.444;2022-12-17T04:01:51;5.20;99.90
26621;DHT22;14253;44.840;10.444;2022-12-17T04:04:35;5.30;99.90
26621;DHT22;14253;44.840;10.444;2022-12-17T04:07:20;5.30;1.00
26621;DHT22;14253;44.840;10.444;2022-12-17T04:10:05;5.30;1.00
26621;DHT22;14253;44.840;10.444;2022-12-17T04:12:50;5.30;1.00
26621;DHT22;14253;44.840;10.444;2022-12-17T04:15:34;5.40;1.00
26621;DHT22;14253;44.840;10.444;2022-12-17T04:18:29;5.40;1.00
26621;DHT22;14253;44.840;10.444;2022-12-17T04:21:14;5.30;1.00
26621;DHT22;14253;44.840;10.444;2022-12-17T04:23:58;5.40;1.00
26621;DHT22;14253;44.840;10.444;2022-12-17T04:26:43;5.40;99.90
26621;DHT22;14253;44.840;10.444;2022-12-17T04:29:27;5.40;99.90
26621;DHT22;14253;44.840;10.444;2022-12-17T04:32:11;5.40;99.90
26621;DHT22;14253;44.840;10.444;2022-12-17T04:34:56;5.30;99.90
26621;DHT22;14253;44.840;10.444;2022-12-17T04:37:41;5.40;99.90
26621;DHT22;14253;44.840;10.444;2022-12-17T04:40:25;5.30;1.00
26621;DHT22;14253;44.840;10.444;2022-12-17T04:43:11;5.40;1.00
26621;DHT22;14253;44.840;10.444;2022-12-17T04:45:56;5.30;1.00
26621;DHT22;14253;44.840;10.444;2022-12-17T04:48:40;5.30;1.00
26621;DHT22;14253;44.840;10.444;2022-12-17T04:51:25;5.40;1.00
26621;DHT22;14253;44.840;10.444;2022-12-17T04:54:10;5.40;1.00
26621;DHT22;14253;44.840;10.444;2022-12-17T04:56:55;5.30;1.00
26621;DHT22;14253;44.840;10.444;2022-12-17T04:59:39;5.30;1.00
26621;DHT22;14253;44.840;10.444;2022-12-17T05:02:23;5.30;1.00
26621;DHT22;14253;44.840;10.444;2022-12-17T05:05:08;5.30;1.00
26621;DHT22;14253;44.840;10.444;2022-12-17T05:07:54;5.20;99.90
26621;DHT22;14253;44.840;10.444;2022-12-17T05:10:39;5.10;99.90
26621;DHT22;14253;44.840;10.444;2022-12-17T05:13:24;5.00;99.90
26621;DHT22;14253;44.840;10.444;2022-12-17T05:16:08;5.00;99.90
26621;DHT22;14253;44.840;10.444;2022-12-17T05:18:53;4.90;99.90
26621;DHT22;14253;44.840;10.444;2022-12-17T05:21:37;4.80;99.90
26621;DHT22;14253;44.840;10.444;2022-12-17T05:24:22;4.70;99.90
26621;DHT22;14253;44.840;10.444;2022-12-17T05:27:07;4.60;99.90
26621;DHT22;14253;44.840;10.444;2022-12-17T05:29:51;4.50;99.90
26621;DHT22;14253;44.840;10.444;2022-12-17T05:32:36;4.40;99.90
26621;DHT22;14253;44.840;10.444;2022-12-17T05:35:20;4.30;99.90
26621;DHT22;14253;44.840;10.444;2022-12-17T05:38:08;4.30;99.90
26621;DHT22;14253;44.840;10.444;2022-12-17T05:40:57;4.20;99.90
26621;DHT22;14253;44.840;10.444;2022-12-17T05:43:41;4.10;99.90
26621;DHT22;14253;44.840;10.444;2022-12-17T05:46:26;4.00;99.90
26621;DHT22;14253;44.840;10.444;2022-12-17T05:49:11;4.00;99.90
26621;DHT22;14253;44.840;10.444;2022-12-17T05:51:55;3.90;99.90
26621;DHT22;14253;44.840;10.444;2022-12-17T05:54:40;3.90;99.90
26621;DHT22;14253;44.840;10.444;2022-12-17T05:57:24;3.90;99.90
26621;DHT22;14253;44.840;10.444;2022-12-17T06:00:09;3.80;99.90
26621;DHT22;14253;44.840;10.444;2022-12-17T06:03:02;3.80;99.90
26621;DHT22;14253;44.840;10.444;2022-12-17T06:05:49;3.80;99.90
26621;DHT22;14253;44.840;10.444;2022-12-17T06:08:36;3.80;99.90
26621;DHT22;14253;44.840;10.444;2022-12-17T06:11:20;3.70;99.90
26621;DHT22;14253;44.840;10.444;2022-12-17T06:14:05;3.80;99.90
26621;DHT22;14253;44.840;10.444;2022-12-17T06:16:49;3.80;99.90
26621;DHT22;14253;44.840;10.444;2022-12-17T06:19:33;3.80;99.90
26621;DHT22;14253;44.840;10.444;2022-12-17T06:22:20;3.90;99.90
26621;DHT22;14253;44.840;10.444;2022-12-17T06:25:04;3.90;99.90
26621;DHT22;14253;44.840;10.444;2022-12-17T06:27:48;3.90;99.90
26621;DHT22;14253;44.840;10.444;2022-12-17T06:30:40;3.90;99.90
26621;DHT22;14253;44.840;10.444;2022-12-17T06:33:24;4.00;99.90
26621;DHT22;14253;44.840;10.444;2022-12-17T06:36:09;4.00;99.90
26621;DHT22;14253;44.840;10.444;2022-12-17T06:38:53;4.00;99.90
26621;DHT22;14253;44.840;10.444;2022-12-17T06:41:38;4.00;99.90
26621;DHT22;14253;44.840;10.444;2022-12-17T06:44:22;4.00;99.90
26621;DHT22;14253;44.840;10.444;2022-12-17T06:47:07;3.90;99.90
26621;DHT22;14253;44.840;10.444;2022-12-17T06:49:51;3.90;99.90
26621;DHT22;14253;44.840;10.444;2022-12-17T06:52:36;3.90;99.90
26621;DHT22;14253;44.840;10.444;2022-12-17T06:55:20;3.90;99.90
26621;DHT22;14253;44.840;10.444;2022-12-17T06:58:05;3.80;99.90
26621;DHT22;14253;44.840;10.444;2022-12-17T07:00:50;3.90;99.90
26621;DHT22;14253;44.840;10.444;2022-12-17T07:03:34;3.80;99.90
26621;DHT22;14253;44.840;10.444;2022-12-17T07:06:19;3.90;99.90
26621;DHT22;14253;44.840;10.444;2022-12-17T07:09:03;3.90;99.90
26621;DHT22;14253;44.840;10.444;2022-12-17T07:11:48;3.80;99.90
26621;DHT22;14253;44.840;10.444;2022-12-17T07:14:32;3.90;99.90
26621;DHT22;14253;44.840;10.444;2022-12-17T07:17:17;3.90;99.90
26621;DHT22;14253;44.840;10.444;2022-12-17T07:20:01;3.90;99.90
26621;DHT22;14253;44.840;10.444;2022-12-17T07:22:46;4.00;99.90
26621;DHT22;14253;44.840;10.444;2022-12-17T07:25:30;4.00;99.90
26621;DHT22;14253;44.840;10.444;2022-12-17T07:28:15;3.90;99.90
26621;DHT22;14253;44.840;10.444;2022-12-17T07:30:59;3.90;99.90
26621;DHT22;14253;44.840;10.444;2022-12-17T07:33:44;3.90;99.90
26621;DHT22;14253;44.840;10.444;2022-12-17T07:36:28;3.80;99.90
26621;DHT22;14253;44.840;10.444;2022-12-17T07:39:12;3.80;99.90
26621;DHT22;14253;44.840;10.444;2022-12-17T07:41:58;3.80;99.90
26621;DHT22;14253;44.840;10.444;2022-12-17T07:44:42;3.80;99.90
26621;DHT22;14253;44.840;10.444;2022-12-17T07:47:27;3.80;99.90
26621;DHT22;14253;44.840;10.444;2022-12-17T07:50:12;3.70;99.90
26621;DHT22;14253;44.840;10.444;2022-12-17T07:53:00;3.70;99.90
26621;DHT22;14253;44.840;10.444;2022-12-17T07:55:44;3.70;99.90
26621;DHT22;14253;44.840;10.444;2022-12-17T07:58:29;3.70;99.90
26621;DHT22;14253;44.840;10.444;2022-12-17T08:01:14;3.70;99.90
26621;DHT22;14253;44.840;10.444;2022-12-17T08:03:58;3.80;99.90
26621;DHT22;14253;44.840;10.444;2022-12-17T08:06:43;3.90;99.90
26621;DHT22;14253;44.840;10.444;2022-12-17T08:09:27;3.90;99.90
26621;DHT22;14253;44.840;10.444;2022-12-17T08:12:12;4.00;99.90
26621;DHT22;14253;44.840;10.444;2022-12-17T08:14:56;4.00;99.90
26621;DHT22;14253;44.840;10.444;2022-12-17T08:17:41;4.00;99.90
26621;DHT22;14253;44.840;10.444;2022-12-17T08:20:25;4.00;99.90
26621;DHT22;14253;44.840;10.444;2022-12-17T08:23:10;4.10;99.90
26621;DHT22;14253;44.840;10.444;2022-12-17T08:25:54;4.10;99.90
26621;DHT22;14253;44.840;10.444;2022-12-17T08:28:39;4.20;99.90
26621;DHT22;14253;44.840;10.444;2022-12-17T08:31:24;4.30;99.90
26621;DHT22;14253;44.840;10.444;2022-12-17T08:34:08;4.40;99.90
26621;DHT22;14253;44.840;10.444;2022-12-17T08:36:52;4.50;99.90
26621;DHT22;14253;44.840;10.444;2022-12-17T08:39:37;4.50;99.90
26621;DHT22;14253;44.840;10.444;2022-12-17T08:42:21;4.60;99.90
26621;DHT22;14253;44.840;10.444;2022-12-17T08:45:06;4.70;99.90
26621;DHT22;14253;44.840;10.444;2022-12-17T08:47:51;4.70;99.90
26621;DHT22;14253;44.840;10.444;2022-12-17T08:50:35;4.80;99.90
26621;DHT22;14253;44.840;10.444;2022-12-17T08:53:20;4.90;99.90
26621;DHT22;14253;44.840;10.444;2022-12-17T08:56:05;5.00;99.90
26621;DHT22;14253;44.840;10.444;2022-12-17T08:58:49;5.00;99.90
26621;DHT22;14253;44.840;10.444;2022-12-17T09:01:34;5.10;99.90
26621;DHT22;14253;44.840;10.444;2022-12-17T09:04:18;5.10;99.90
26621;DHT22;14253;44.840;10.444;2022-12-17T09:07:03;5.10;99.90
26621;DHT22;14253;44.840;10.444;2022-12-17T09:09:47;5.20;99.90
26621;DHT22;14253;44.840;10.444;2022-12-17T09:12:32;5.20;99.90
26621;DHT22;14253;44.840;10.444;2022-12-17T09:15:16;5.20;99.90
26621;DHT22;14253;44.840;10.444;2022-12-17T09:18:00;5.40;99.90
26621;DHT22;14253;44.840;10.444;2022-12-17T09:20:51;5.40;99.90
26621;DHT22;14253;44.840;10.444;2022-12-17T09:23:36;5.50;99.90
26621;DHT22;14253;44.840;10.444;2022-12-17T09:26:21;5.50;99.90
26621;DHT22;14253;44.840;10.444;2022-12-17T09:29:05;5.60;99.90
26621;DHT22;14253;44.840;10.444;2022-12-17T09:31:50;5.60;99.90
26621;DHT22;14253;44.840;10.444;2022-12-17T09:34:48;5.70;99.90
26621;DHT22;14253;44.840;10.444;2022-12-17T09:37:32;5.70;99.90
26621;DHT22;14253;44.840;10.444;2022-12-17T09:40:22;5.70;99.90
26621;DHT22;14253;44.840;10.444;2022-12-17T09:46:07;5.80;99.90
26621;DHT22;14253;44.840;10.444;2022-12-17T09:51:57;5.90;99.90
26621;DHT22;14253;44.840;10.444;2022-12-17T09:54:47;6.00;99.90
26621;DHT22;14253;44.840;10.444;2022-12-17T09:57:35;6.10;99.90
26621;DHT22;14253;44.840;10.444;2022-12-17T10:00:23;6.20;99.90
26621;DHT22;14253;44.840;10.444;2022-12-17T10:03:17;6.20;99.90
26621;DHT22;14253;44.840;10.444;2022-12-17T10:06:23;6.20;99.90
26621;DHT22;14253;44.840;10.444;2022-12-17T10:09:16;6.30;99.90
26621;DHT22;14253;44.840;10.444;2022-12-17T10:12:14;6.30;99.90
26621;DHT22;14253;44.840;10.444;2022-12-17T10:14:59;6.40;99.90
26621;DHT22;14253;44.840;10.444;2022-12-17T10:17:44;6.40;99.90
26621;DHT22;14253;44.840;10.444;2022-12-17T10:20:46;6.40;99.90
26621;DHT22;14253;44.840;10.444;2022-12-17T10:23:34;6.50;99.90
26621;DHT22;14253;44.840;10.444;2022-12-17T10:26:26;6.50;99.90
26621;DHT22;14253;44.840;10.444;2022-12-17T10:29:12;6.60;99.90
26621;DHT22;14253;44.840;10.444;2022-12-17T10:31:59;6.70;99.90
26621;DHT22;14253;44.840;10.444;2022-12-17T10:34:51;6.70;99.90
26621;DHT22;14253;44.840;10.444;2022-12-17T10:37:36;6.80;99.90
26621;DHT22;14253;44.840;10.444;2022-12-17T10:40:26;6.80;99.90
26621;DHT22;14253;44.840;10.444;2022-12-17T10:43:29;6.90;99.90
26621;DHT22;14253;44.840;10.444;2022-12-17T10:49:18;7.00;99.90
26621;DHT22;14253;44.840;10.444;2022-12-17T10:52:26;7.10;99.90
26621;DHT22;14253;44.840;10.444;2022-12-17T10:55:26;7.10;99.90
26621;DHT22;14253;44.840;10.444;2022-12-17T10:58:28;7.20;99.90
26621;DHT22;14253;44.840;10.444;2022-12-17T11:01:23;7.20;99.90
26621;DHT22;14253;44.840;10.444;2022-12-17T11:04:50;7.30;99.90
26621;DHT22;14253;44.840;10.444;2022-12-17T11:07:40;7.40;99.90
26621;DHT22;14253;44.840;10.444;2022-12-17T11:10:28;7.50;99.90
26621;DHT22;14253;44.840;10.444;2022-12-17T11:13:35;7.60;99.90
26621;DHT22;14253;44.840;10.444;2022-12-17T11:16:31;7.60;99.90
26621;DHT22;14253;44.840;10.444;2022-12-17T11:22:54;7.80;99.90
26621;DHT22;14253;44.840;10.444;2022-12-17T11:26:04;7.90;99.90
26621;DHT22;14253;44.840;10.444;2022-12-17T11:28:49;8.00;99.90
26621;DHT22;14253;44.840;10.444;2022-12-17T11:37:40;8.10;99.90
26621;DHT22;14253;44.840;10.444;2022-12-17T11:40:35;8.00;99.90
26621;DHT22;14253;44.840;10.444;2022-12-17T11:46:44;8.10;99.90
26621;DHT22;14253;44.840;10.444;2022-12-17T11:49:57;7.90;99.90
26621;DHT22;14253;44.840;10.444;2022-12-17T11:53:00;7.90;99.90
26621;DHT22;14253;44.840;10.444;2022-12-17T11:59:35;8.10;99.90
26621;DHT22;14253;44.840;10.444;2022-12-17T12:05:54;8.20;99.90
26621;DHT22;14253;44.840;10.444;2022-12-17T12:12:10;8.20;99.90
26621;DHT22;14253;44.840;10.444;2022-12-17T12:24:55;8.50;99.90
26621;DHT22;14253;44.840;10.444;2022-12-17T12:36:29;8.60;99.90
26621;DHT22;14253;44.840;10.444;2022-12-17T12:39:21;8.70;99.90
26621;DHT22;14253;44.840;10.444;2022-12-17T12:42:20;8.70;99.90
26621;DHT22;14253;44.840;10.444;2022-12-17T12:45:32;8.70;99.90
26621;DHT22;14253;44.840;10.444;2022-12-17T12:48:33;8.70;99.90
26621;DHT22;14253;44.840;10.444;2022-12-17T12:51:26;8.70;99.90
26621;DHT22;14253;44.840;10.444;2022-12-17T12:57:35;8.80;99.90
26621;DHT22;14253;44.840;10.444;2022-12-17T13:06:50;8.90;99.90
26621;DHT22;14253;44.840;10.444;2022-12-17T13:12:32;8.70;99.90
26621;DHT22;14253;44.840;10.444;2022-12-17T13:17:56;8.70;99.90
26621;DHT22;14253;44.840;10.444;2022-12-17T13:22:52;8.70;99.90
26621;DHT22;14253;44.840;10.444;2022-12-17T13:25:20;8.70;99.90
26621;DHT22;14253;44.840;10.444;2022-12-17T13:27:47;8.70;99.90
26621;DHT22;14253;44.840;10.444;2022-12-17T13:30:28;8.70;99.90
26621;DHT22;14253;44.840;10.444;2022-12-17T13:36:07;8.70;99.90
26621;DHT22;14253;44.840;10.444;2022-12-17T13:38:45;8.70;99.90
26621;DHT22;14253;44.840;10.444;2022-12-17T13:41:17;8.60;99.90
26621;DHT22;14253;44.840;10.444;2022-12-17T13:43:54;8.60;99.90
26621;DHT22;14253;44.840;10.444;2022-12-17T13:46:25;8.50;99.90
26621;DHT22;14253;44.840;10.444;2022-12-17T13:49:02;8.40;99.90
26621;DHT22;14253;44.840;10.444;2022-12-17T13:51:31;8.50;99.90
26621;DHT22;14253;44.840;10.444;2022-12-17T13:54:02;8.50;99.90
26621;DHT22;14253;44.840;10.444;2022-12-17T13:56:31;8.50;99.90
26621;DHT22;14253;44.840;10.444;2022-12-17T13:58:58;8.60;99.90
26621;DHT22;14253;44.840;10.444;2022-12-17T14:01:28;8.60;99.90
26621;DHT22;14253;44.840;10.444;2022-12-17T14:03:56;8.50;99.90
26621;DHT22;14253;44.840;10.444;2022-12-17T14:06:28;8.40;99.90
26621;DHT22;14253;44.840;10.444;2022-12-17T14:08:57;8.30;99.90
26621;DHT22;14253;44.840;10.444;2022-12-17T14:11:23;8.20;99.90
26621;DHT22;14253;44.840;10.444;2022-12-17T14:16:47;8.10;99.90
26621;DHT22;14253;44.840;10.444;2022-12-17T14:19:13;8.10;99.90
26621;DHT22;14253;44.840;10.444;2022-12-17T14:21:39;8.00;99.90
26621;DHT22;14253;44.840;10.444;2022-12-17T14:24:08;8.00;99.90
26621;DHT22;14253;44.840;10.444;2022-12-17T14:26:47;8.00;99.90
26621;DHT22;14253;44.840;10.444;2022-12-17T14:29:13;7.90;99.90
26621;DHT22;14253;44.840;10.444;2022-12-17T14:32:00;7.80;99.90
26621;DHT22;14253;44.840;10.444;2022-12-17T14:34:26;7.70;99.90
26621;DHT22;14253;44.840;10.444;2022-12-17T14:36:58;7.60;99.90
26621;DHT22;14253;44.840;10.444;2022-12-17T14:39:28;7.50;99.90
26621;DHT22;14253;44.840;10.444;2022-12-17T14:41:56;7.40;99.90
26621;DHT22;14253;44.840;10.444;2022-12-17T14:47:39;7.30;99.90
26621;DHT22;14253;44.840;10.444;2022-12-17T14:52:46;7.20;99.90
26621;DHT22;14253;44.840;10.444;2022-12-17T14:58:14;7.20;99.90
26621;DHT22;14253;44.840;10.444;2022-12-17T15:00:45;7.20;99.90
26621;DHT22;14253;44.840;10.444;2022-12-17T15:03:17;7.10;99.90
26621;DHT22;14253;44.840;10.444;2022-12-17T15:05:50;7.10;99.90
26621;DHT22;14253;44.840;10.444;2022-12-17T15:08:16;7.10;99.90
26621;DHT22;14253;44.840;10.444;2022-12-17T15:10:42;7.00;99.90
26621;DHT22;14253;44.840;10.444;2022-12-17T15:13:08;7.00;99.90
26621;DHT22;14253;44.840;10.444;2022-12-17T15:15:34;7.00;99.90
26621;DHT22;14253;44.840;10.444;2022-12-17T15:18:00;7.00;99.90
26621;DHT22;14253;44.840;10.444;2022-12-17T15:20:26;7.00;99.90
26621;DHT22;14253;44.840;10.444;2022-12-17T15:22:53;7.00;99.90
26621;DHT22;14253;44.840;10.444;2022-12-17T15:25:19;6.90;99.90
26621;DHT22;14253;44.840;10.444;2022-12-17T15:27:45;6.90;99.90
26621;DHT22;14253;44.840;10.444;2022-12-17T15:30:17;6.90;99.90
26621;DHT22;14253;44.840;10.444;2022-12-17T15:32:44;6.90;99.90
26621;DHT22;14253;44.840;10.444;2022-12-17T15:35:11;6.80;99.90
26621;DHT22;14253;44.840;10.444;2022-12-17T15:37:37;6.90;99.90
26621;DHT22;14253;44.840;10.444;2022-12-17T15:40:04;6.80;99.90
26621;DHT22;14253;44.840;10.444;2022-12-17T15:42:31;6.80;99.90
26621;DHT22;14253;44.840;10.444;2022-12-17T15:45:15;6.70;99.90
26621;DHT22;14253;44.840;10.444;2022-12-17T15:47:41;6.70;99.90
26621;DHT22;14253;44.840;10.444;2022-12-17T15:50:07;6.70;99.90
26621;DHT22;14253;44.840;10.444;2022-12-17T15:52:33;6.70;99.90
26621;DHT22;14253;44.840;10.444;2022-12-17T15:54:59;6.70;99.90
26621;DHT22;14253;44.840;10.444;2022-12-17T15:57:25;6.60;99.90
26621;DHT22;14253;44.840;10.444;2022-12-17T15:59:51;6.60;99.90
26621;DHT22;14253;44.840;10.444;2022-12-17T16:02:17;6.70;99.90
26621;DHT22;14253;44.840;10.444;2022-12-17T16:04:43;6.70;99.90
26621;DHT22;14253;44.840;10.444;2022-12-17T16:07:09;6.70;99.90
26621;DHT22;14253;44.840;10.444;2022-12-17T16:09:35;6.70;99.90
26621;DHT22;14253;44.840;10.444;2022-12-17T16:12:01;6.70;99.90
26621;DHT22;14253;44.840;10.444;2022-12-17T16:14:27;6.60;99.90
26621;DHT22;14253;44.840;10.444;2022-12-17T16:16:53;6.60;99.90
26621;DHT22;14253;44.840;10.444;2022-12-17T16:19:18;6.60;99.90
26621;DHT22;14253;44.840;10.444;2022-12-17T16:21:47;6.60;99.90
26621;DHT22;14253;44.840;10.444;2022-12-17T16:24:13;6.60;99.90
26621;DHT22;14253;44.840;10.444;2022-12-17T16:26:39;6.60;99.90
26621;DHT22;14253;44.840;10.444;2022-12-17T16:29:05;6.70;99.90
26621;DHT22;14253;44.840;10.444;2022-12-17T16:31:31;6.60;99.90
26621;DHT22;14253;44.840;10.444;2022-12-17T16:33:57;6.60;99.90
26621;DHT22;14253;44.840;10.444;2022-12-17T16:36:23;6.60;99.90
26621;DHT22;14253;44.840;10.444;2022-12-17T16:38:52;6.60;99.90
26621;DHT22;14253;44.840;10.444;2022-12-17T16:41:19;6.60;99.90
26621;DHT22;14253;44.840;10.444;2022-12-17T16:43:45;6.60;99.90
26621;DHT22;14253;44.840;10.444;2022-12-17T16:46:30;6.60;99.90
26621;DHT22;14253;44.840;10.444;2022-12-17T16:48:58;6.60;99.90
26621;DHT22;14253;44.840;10.444;2022-12-17T16:51:25;6.60;99.90
26621;DHT22;14253;44.840;10.444;2022-12-17T16:53:51;6.60;99.90
26621;DHT22;14253;44.840;10.444;2022-12-17T16:56:24;6.60;99.90
26621;DHT22;14253;44.840;10.444;2022-12-17T16:58:50;6.60;99.90
26621;DHT22;14253;44.840;10.444;2022-12-17T17:01:20;6.60;99.90
26621;DHT22;14253;44.840;10.444;2022-12-17T17:03:47;6.60;99.90
26621;DHT22;14253;44.840;10.444;2022-12-17T17:06:14;6.60;99.90
26621;DHT22;14253;44.840;10.444;2022-12-17T17:08:40;6.60;99.90
26621;DHT22;14253;44.840;10.444;2022-12-17T17:13:32;6.60;99.90
26621;DHT22;14253;44.840;10.444;2022-12-17T17:15:58;6.60;99.90
26621;DHT22;14253;44.840;10.444;2022-12-17T17:18:24;6.60;99.90
26621;DHT22;14253;44.840;10.444;2022-12-17T17:20:50;6.60;99.90
26621;DHT22;14253;44.840;10.444;2022-12-17T17:23:15;6.60;99.90
26621;DHT22;14253;44.840;10.444;2022-12-17T17:25:41;6.60;99.90
26621;DHT22;14253;44.840;10.444;2022-12-17T17:28:07;6.60;99.90
26621;DHT22;14253;44.840;10.444;2022-12-17T17:30:33;6.60;99.90
26621;DHT22;14253;44.840;10.444;2022-12-17T17:32:59;6.50;99.90
26621;DHT22;14253;44.840;10.444;2022-12-17T17:35:25;6.50;99.90
26621;DHT22;14253;44.840;10.444;2022-12-17T17:37:51;6.50;99.90
26621;DHT22;14253;44.840;10.444;2022-12-17T17:40:17;6.50;99.90
26621;DHT22;14253;44.840;10.444;2022-12-17T17:42:43;6.50;99.90
26621;DHT22;14253;44.840;10.444;2022-12-17T17:45:09;6.50;99.90
26621;DHT22;14253;44.840;10.444;2022-12-17T17:47:35;6.50;99.90
26621;DHT22;14253;44.840;10.444;2022-12-17T17:50:01;6.60;99.90
26621;DHT22;14253;44.840;10.444;2022-12-17T17:52:27;6.60;99.90
26621;DHT22;14253;44.840;10.444;2022-12-17T17:54:53;6.60;99.90
26621;DHT22;14253;44.840;10.444;2022-12-17T17:57:19;6.60;99.90
26621;DHT22;14253;44.840;10.444;2022-12-17T17:59:45;6.60;99.90
26621;DHT22;14253;44.840;10.444;2022-12-17T18:02:11;6.60;99.90
26621;DHT22;14253;44.840;10.444;2022-12-17T18:04:37;6.60;99.90
26621;DHT22;14253;44.840;10.444;2022-12-17T18:07:04;6.60;99.90
26621;DHT22;14253;44.840;10.444;2022-12-17T18:09:30;6.70;99.90
26621;DHT22;14253;44.840;10.444;2022-12-17T18:11:56;6.60;99.90
26621;DHT22;14253;44.840;10.444;2022-12-17T18:14:22;6.60;99.90
26621;DHT22;14253;44.840;10.444;2022-12-17T18:16:48;6.60;99.90
26621;DHT22;14253;44.840;10.444;2022-12-17T18:19:19;6.60;99.90
26621;DHT22;14253;44.840;10.444;2022-12-17T18:21:46;6.60;99.90
26621;DHT22;14253;44.840;10.444;2022-12-17T18:24:20;6.60;99.90
26621;DHT22;14253;44.840;10.444;2022-12-17T18:26:48;6.60;99.90
26621;DHT22;14253;44.840;10.444;2022-12-17T18:29:19;6.50;99.90
26621;DHT22;14253;44.840;10.444;2022-12-17T18:34:06;6.50;99.90
26621;DHT22;14253;44.840;10.444;2022-12-17T18:36:38;6.50;99.90
26621;DHT22;14253;44.840;10.444;2022-12-17T18:39:19;6.50;99.90